Time;durP1;ratioP1;P1;durP2;ratioP2;P2;SDS_P1;SDS_P2;PMS_P1;PMS_P2;Temp;Humidity;BMP_temperature;BMP_pressure;BME280_temperature;BME280_humidity;BME280_pressure;Samples;Min_cycle;Max_cycle;Signal;HPM_P1;HPM_P2
2023/03/30 00:00:56;;;;;;;4.00;1.73;;;;;;;12.09;96.98;100092.50;5033187;28;20053;-52
2023/03/30 00:03:22;;;;;;;1.65;1.55;;;;;;;12.10;96.59;100077.84;5031240;28;20403;-50
2023/03/30 00:05:50;;;;;;;3.00;1.65;;;;;;;12.21;96.85;100073.28;5031744;28;20472;-51
2023/03/30 00:08:17;;;;;;;3.72;2.13;;;;;;;12.06;97.15;100068.22;5026810;28;20037;-51
2023/03/30 00:10:43;;;;;;;3.45;2.38;;;;;;;12.10;97.71;100069.00;5029900;28;20036;-50
2023/03/30 00:13:09;;;;;;;2.58;1.63;;;;;;;11.96;98.36;100072.41;5032592;28;20025;-55
2023/03/30 00:15:35;;;;;;;2.67;1.60;;;;;;;11.68;100.00;100066.84;5034729;28;20033;-53
2023/03/30 00:18:00;;;;;;;5.10;1.83;;;;;;;11.98;99.19;100058.53;5029469;28;20377;-51
2023/03/30 00:20:26;;;;;;;3.65;2.13;;;;;;;12.07;98.70;100059.72;5025932;28;20041;-48
2023/03/30 00:22:51;;;;;;;2.95;1.45;;;;;;;12.05;99.03;100067.44;5033271;28;20094;-52
2023/03/30 00:25:17;;;;;;;3.67;1.73;;;;;;;12.11;98.64;100063.22;5028201;28;20030;-50
2023/03/30 00:27:44;;;;;;;2.50;1.50;;;;;;;11.99;99.23;100070.84;5033436;28;20114;-50
2023/03/30 00:30:16;;;;;;;3.33;1.58;;;;;;;12.15;98.25;100055.91;5023874;28;20026;-49
2023/03/30 00:32:43;;;;;;;3.35;1.75;;;;;;;12.18;98.31;100051.66;5048163;28;20510;-53
2023/03/30 00:35:09;;;;;;;1.98;1.42;;;;;;;12.21;98.60;100046.28;5033197;28;20048;-50
2023/03/30 00:37:36;;;;;;;4.47;1.95;;;;;;;12.12;98.44;100037.75;5033577;28;20388;-52
2023/03/30 00:40:06;;;;;;;2.47;1.55;;;;;;;12.20;98.63;100035.84;5018891;28;20052;-50
2023/03/30 00:42:36;;;;;;;2.17;1.55;;;;;;;12.12;97.90;100031.56;5029296;28;20033;-51
2023/03/30 00:45:06;;;;;;;1.90;1.40;;;;;;;12.04;99.07;100027.31;5033294;28;20376;-51
2023/03/30 00:47:40;;;;;;;2.83;1.38;;;;;;;12.27;98.40;100033.94;5022703;28;20389;-52
2023/03/30 00:50:07;;;;;;;3.55;1.52;;;;;;;12.13;99.12;100025.81;5029077;28;20092;-54
2023/03/30 00:52:36;;;;;;;2.22;1.55;;;;;;;12.12;98.75;100018.09;5033807;28;20033;-51
2023/03/30 00:55:06;;;;;;;2.85;1.70;;;;;;;12.00;99.70;100019.19;5033980;28;20396;-54
2023/03/30 00:57:36;;;;;;;2.75;1.55;;;;;;;12.03;100.00;100007.66;5021703;28;20030;-54
2023/03/30 01:00:05;;;;;;;2.97;1.33;;;;;;;12.14;99.33;99997.66;5031544;28;20179;-50
2023/03/30 01:02:36;;;;;;;3.38;1.88;;;;;;;12.20;98.96;99985.34;5037974;28;20551;-52
2023/03/30 01:05:02;;;;;;;2.42;1.60;;;;;;;12.30;98.61;99984.59;5032932;28;20116;-52
2023/03/30 01:07:30;;;;;;;3.20;1.48;;;;;;;12.32;97.03;99974.19;5030365;28;20037;-56
2023/03/30 01:09:57;;;;;;;1.85;1.05;;;;;;;12.24;98.17;99959.13;5028429;28;20618;-55
2023/03/30 01:12:22;;;;;;;6.10;2.50;;;;;;;12.04;99.74;99959.88;5026454;28;20033;-49
2023/03/30 01:14:49;;;;;;;2.95;1.63;;;;;;;12.17;99.65;99956.44;5031934;28;20030;-50
2023/03/30 01:17:25;;;;;;;3.92;1.75;;;;;;;12.17;99.15;99951.03;5032309;28;20120;-53
2023/03/30 01:20:22;;;;;;;4.95;2.13;;;;;;;12.17;99.09;99937.53;5033964;28;20373;-48
2023/03/30 01:23:09;;;;;;;2.88;1.40;;;;;;;12.35;98.31;99937.56;5025201;28;20533;-51
2023/03/30 01:26:00;;;;;;;2.70;1.60;;;;;;;12.23;98.07;99929.84;5036439;28;20080;-48
2023/03/30 01:28:44;;;;;;;2.28;1.25;;;;;;;12.19;99.21;99923.66;5044277;28;20120;-52
2023/03/30 01:31:40;;;;;;;1.58;1.02;;;;;;;12.22;98.14;99929.03;5029441;28;20547;-49
2023/03/30 01:34:06;;;;;;;1.90;1.30;;;;;;;12.18;99.47;99928.28;5033285;28;20039;-54
2023/03/30 01:36:58;;;;;;;2.67;2.10;;;;;;;12.31;97.80;99915.94;5035435;28;20034;-53
2023/03/30 01:39:55;;;;;;;2.83;1.52;;;;;;;12.26;98.64;99915.56;5021364;28;20040;-51
2023/03/30 01:42:30;;;;;;;2.53;1.50;;;;;;;11.97;99.88;99916.66;5031183;28;20072;-54
2023/03/30 01:45:12;;;;;;;4.70;1.63;;;;;;;12.07;100.00;99911.28;5029578;28;20446;-54
2023/03/30 01:47:49;;;;;;;3.40;1.83;;;;;;;12.05;100.00;99908.19;5008206;28;20105;-55
2023/03/30 01:50:19;;;;;;;2.92;0.82;;;;;;;11.95;99.94;99911.63;5026015;28;20037;-51
2023/03/30 01:53:40;;;;;;;2.43;1.27;;;;;;;11.96;100.00;99905.09;5045360;28;20040;-55
2023/03/30 01:56:18;;;;;;;2.72;1.77;;;;;;;11.79;100.00;99901.19;4992472;28;20042;-53
2023/03/30 01:58:51;;;;;;;6.25;2.00;;;;;;;12.02;100.00;99908.19;5031140;28;20044;-55
2023/03/30 02:01:19;;;;;;;4.07;2.17;;;;;;;12.04;99.94;99885.06;5038392;28;20040;-53
2023/03/30 02:03:57;;;;;;;4.60;1.80;;;;;;;11.80;100.00;99888.47;5023832;28;20021;-52
2023/03/30 02:06:37;;;;;;;4.22;1.75;;;;;;;11.95;100.00;99871.16;5031557;28;20124;-56
2023/03/30 02:09:05;;;;;;;2.70;1.53;;;;;;;11.94;100.00;99871.56;5041610;28;20060;-52
2023/03/30 02:11:32;;;;;;;2.55;1.42;;;;;;;11.93;100.00;99857.28;5001871;28;20288;-53
2023/03/30 02:13:59;;;;;;;2.17;1.58;;;;;;;12.05;100.00;99856.91;5027579;28;20037;-54
2023/03/30 02:16:42;;;;;;;1.75;1.20;;;;;;;11.95;100.00;99849.59;5029229;28;20030;-53
2023/03/30 02:19:08;;;;;;;4.25;1.52;;;;;;;12.06;100.00;99839.56;5031356;28;20095;-49
2023/03/30 02:21:34;;;;;;;2.92;1.83;;;;;;;11.97;100.00;99841.88;5022770;28;20033;-53
2023/03/30 02:24:04;;;;;;;2.42;1.60;;;;;;;12.10;100.00;99837.63;5025843;28;20461;-50
2023/03/30 02:26:31;;;;;;;4.00;2.25;;;;;;;12.21;100.00;99843.84;5027154;28;20036;-50
2023/03/30 02:28:57;;;;;;;2.78;1.65;;;;;;;12.20;100.00;99838.81;5029397;28;20056;-52
2023/03/30 02:31:23;;;;;;;3.28;1.83;;;;;;;12.17;100.00;99831.47;5028840;28;20038;-52
2023/03/30 02:33:51;;;;;;;3.70;2.00;;;;;;;12.07;100.00;99822.22;5018413;28;20040;-53
2023/03/30 02:36:52;;;;;;;3.38;2.28;;;;;;;12.15;100.00;99826.47;5040902;28;20364;-52
2023/03/30 02:40:07;;;;;;;1.93;1.53;;;;;;;12.03;100.00;99816.06;5031624;28;20095;-52
2023/03/30 02:42:58;;;;;;;3.72;2.17;;;;;;;11.97;100.00;99803.31;4979768;28;20073;-50
2023/03/30 02:45:38;;;;;;;2.20;1.63;;;;;;;11.83;100.00;99812.16;5028552;28;20061;-51
2023/03/30 02:48:16;;;;;;;2.15;1.35;;;;;;;11.79;100.00;99806.00;5022442;28;20037;-53
2023/03/30 02:50:50;;;;;;;1.80;1.23;;;;;;;11.65;100.00;99808.66;5026322;28;20041;-52
2023/03/30 02:53:40;;;;;;;3.70;2.22;;;;;;;11.76;100.00;99796.75;5028073;28;20041;-51
2023/03/30 02:56:18;;;;;;;6.22;2.00;;;;;;;11.72;100.00;99787.91;5020941;28;20059;-48
2023/03/30 02:58:55;;;;;;;3.28;1.20;;;;;;;11.83;100.00;99777.09;5020686;28;20053;-54
2023/03/30 03:01:41;;;;;;;2.67;1.60;;;;;;;11.68;100.00;99773.63;5028324;28;20033;-52
2023/03/30 03:04:17;;;;;;;3.17;1.75;;;;;;;11.67;100.00;99758.59;5028342;28;20029;-47
2023/03/30 03:07:01;;;;;;;1.88;1.48;;;;;;;11.80;100.00;99745.50;5022266;28;20040;-47
2023/03/30 03:09:28;;;;;;;3.78;1.70;;;;;;;11.87;100.00;99759.00;5026252;28;20025;-53
2023/03/30 03:11:55;;;;;;;1.83;1.58;;;;;;;11.81;100.00;99749.00;5026556;28;20044;-52
2023/03/30 03:14:25;;;;;;;3.33;1.48;;;;;;;11.61;100.00;99748.56;5028271;28;20124;-52
2023/03/30 03:16:53;;;;;;;1.95;1.33;;;;;;;11.69;100.00;99740.09;5026150;28;20477;-50
2023/03/30 03:19:22;;;;;;;1.77;1.40;;;;;;;11.75;100.00;99749.34;5026921;28;20035;-50
2023/03/30 03:21:48;;;;;;;2.72;1.40;;;;;;;11.78;100.00;99742.44;5038150;28;20033;-46
2023/03/30 03:24:16;;;;;;;3.53;1.35;;;;;;;11.81;100.00;99736.25;5023668;28;20025;-51
2023/03/30 03:27:01;;;;;;;3.25;1.60;;;;;;;11.86;100.00;99727.78;5029328;28;20507;-52
2023/03/30 03:29:29;;;;;;;2.33;1.10;;;;;;;11.90;100.00;99717.78;5020363;28;20108;-51
2023/03/30 03:31:55;;;;;;;2.83;1.40;;;;;;;11.79;100.00;99708.88;5022017;28;20117;-53
2023/03/30 03:34:25;;;;;;;3.05;1.65;;;;;;;11.71;100.00;99712.75;5040821;28;20421;-52
2023/03/30 03:36:57;;;;;;;2.90;1.42;;;;;;;11.74;100.00;99707.38;5041664;28;20033;-51
2023/03/30 03:39:26;;;;;;;3.53;1.77;;;;;;;11.56;100.00;99708.47;5025794;28;20369;-51
2023/03/30 03:41:59;;;;;;;1.70;1.45;;;;;;;11.66;100.00;99707.75;5040472;28;20060;-51
2023/03/30 03:44:24;;;;;;;1.95;1.65;;;;;;;11.67;100.00;99699.25;5025935;28;20057;-51
2023/03/30 03:46:50;;;;;;;4.65;1.95;;;;;;;11.59;100.00;99702.31;5029058;28;20434;-52
2023/03/30 03:49:15;;;;;;;2.53;1.65;;;;;;;11.61;100.00;99694.63;5044743;28;20057;-50
2023/03/30 03:51:41;;;;;;;2.08;1.27;;;;;;;11.70;100.00;99701.19;5016500;28;20133;-48
2023/03/30 03:54:06;;;;;;;1.08;0.93;;;;;;;11.78;100.00;99693.88;5013471;28;20077;-47
2023/03/30 03:56:32;;;;;;;3.58;1.80;;;;;;;11.67;100.00;99679.63;5033602;28;20018;-50
2023/03/30 03:58:58;;;;;;;2.72;1.65;;;;;;;11.57;100.00;99673.06;5043947;28;20087;-51
2023/03/30 04:01:23;;;;;;;3.92;1.75;;;;;;;11.79;100.00;99679.22;5023312;28;20996;-54
2023/03/30 04:03:49;;;;;;;1.83;1.58;;;;;;;11.89;100.00;99669.56;5019519;28;20204;-49
2023/03/30 04:06:15;;;;;;;2.75;1.70;;;;;;;11.87;100.00;99672.66;5025117;28;20396;-52
2023/03/30 04:08:40;;;;;;;2.95;1.98;;;;;;;11.81;100.00;99671.50;5042615;28;20033;-54
2023/03/30 04:11:21;;;;;;;3.88;2.03;;;;;;;11.79;100.00;99668.44;5032728;28;20499;-47
2023/03/30 04:14:07;;;;;;;1.30;1.20;;;;;;;11.76;100.00;99674.59;5014672;28;20041;-49
2023/03/30 04:16:50;;;;;;;4.07;1.77;;;;;;;11.77;100.00;99657.25;5021110;28;20033;-47
2023/03/30 04:19:41;;;;;;;4.15;1.85;;;;;;;11.71;100.00;99656.13;5005819;28;20046;-47
2023/03/30 04:22:41;;;;;;;2.50;1.33;;;;;;;11.52;100.00;99649.16;5030544;28;20439;-49
2023/03/30 04:25:20;;;;;;;2.83;1.60;;;;;;;11.54;100.00;99663.03;5027011;28;20041;-48
2023/03/30 04:28:04;;;;;;;3.60;2.00;;;;;;;11.75;100.00;99651.47;5032090;28;20103;-47
2023/03/30 04:31:11;;;;;;;2.53;1.25;;;;;;;11.39;100.00;99641.84;4948396;28;20047;-51
2023/03/30 04:33:44;;;;;;;4.00;1.77;;;;;;;11.60;100.00;99634.50;5013700;28;20048;-47
2023/03/30 04:36:29;;;;;;;5.93;1.88;;;;;;;11.65;100.00;99653.03;4996035;28;20048;-52
2023/03/30 04:39:17;;;;;;;4.65;1.45;;;;;;;11.69;100.00;99637.59;5029664;28;20025;-52
2023/03/30 04:42:03;;;;;;;2.03;1.23;;;;;;;11.74;100.00;99629.16;4976680;28;20552;-49
2023/03/30 04:44:51;;;;;;;2.53;1.52;;;;;;;11.55;100.00;99637.63;5016910;28;20077;-54
2023/03/30 04:47:37;;;;;;;3.55;1.67;;;;;;;11.38;100.00;99621.44;5012251;28;20115;-49
2023/03/30 04:50:21;;;;;;;1.65;1.15;;;;;;;11.52;100.00;99610.63;5017582;28;20113;-47
2023/03/30 04:53:05;;;;;;;2.63;1.45;;;;;;;11.50;100.00;99611.03;5017758;28;20511;-49
2023/03/30 04:55:50;;;;;;;4.28;2.30;;;;;;;11.37;100.00;99595.63;5021288;28;20030;-47
2023/03/30 04:58:31;;;;;;;1.88;1.00;;;;;;;11.50;100.00;99607.53;5044784;28;20040;-48
2023/03/30 05:01:29;;;;;;;2.75;1.60;;;;;;;11.46;100.00;99602.16;4974508;28;20558;-54
2023/03/30 05:03:54;;;;;;;2.40;1.67;;;;;;;11.52;100.00;99605.22;5016081;28;20076;-50
2023/03/30 05:06:40;;;;;;;2.83;1.50;;;;;;;11.46;100.00;99596.78;4972228;28;20520;-47
2023/03/30 05:09:24;;;;;;;3.33;1.40;;;;;;;11.52;100.00;99599.84;5013545;28;20048;-47
2023/03/30 05:12:08;;;;;;;4.35;1.80;;;;;;;11.58;100.00;99595.59;5012317;28;20120;-46
2023/03/30 05:14:55;;;;;;;2.90;1.50;;;;;;;11.59;100.00;99575.59;4997508;28;20194;-50
2023/03/30 05:17:46;;;;;;;;;;;;;;;11.41;100.00;99582.91;4985868;28;20399;-53
2023/03/30 05:20:24;;;;;;;4.50;1.80;;;;;;;11.61;100.00;99589.44;5032973;28;19917;-47
2023/03/30 05:23:05;;;;;;;4.33;1.83;;;;;;;11.71;100.00;99583.31;4997253;28;20128;-52
2023/03/30 05:25:49;;;;;;;3.80;1.88;;;;;;;11.56;100.00;99584.44;5014969;28;20659;-56
2023/03/30 05:28:43;;;;;;;2.22;1.35;;;;;;;11.75;100.00;99579.44;5000751;28;20309;-54
2023/03/30 05:31:35;;;;;;;1.60;1.20;;;;;;;11.65;100.00;99585.59;5002728;28;20081;-51
2023/03/30 05:34:06;;;;;;;1.65;1.25;;;;;;;11.51;100.00;99582.13;5027761;28;20055;-48
2023/03/30 05:36:51;;;;;;;1.55;1.30;;;;;;;11.55;100.00;99580.22;5025340;28;20071;-47
2023/03/30 05:39:35;;;;;;;1.50;1.38;;;;;;;11.47;100.00;99568.66;5016840;28;20049;-54
2023/03/30 05:42:01;;;;;;;2.53;1.70;;;;;;;11.59;100.00;99556.72;5017375;28;20042;-52
2023/03/30 05:44:39;;;;;;;2.13;1.35;;;;;;;11.77;100.00;99549.38;5019968;28;20040;-50
2023/03/30 05:47:30;;;;;;;1.50;1.27;;;;;;;11.98;100.00;99553.94;5013438;28;20041;-52
2023/03/30 05:50:18;;;;;;;2.95;1.67;;;;;;;11.89;100.00;99569.75;4996597;28;20088;-51
2023/03/30 05:52:58;;;;;;;3.28;1.75;;;;;;;11.90;100.00;99572.09;5017228;28;20083;-48
2023/03/30 05:55:46;;;;;;;2.10;0.98;;;;;;;12.03;100.00;99581.28;5030412;28;20438;-50
2023/03/30 05:58:35;;;;;;;2.28;1.30;;;;;;;12.18;100.00;99598.19;5008606;28;20449;-52
2023/03/30 06:01:08;;;;;;;4.68;1.60;;;;;;;12.27;100.00;99606.66;5044686;28;20038;-49
2023/03/30 06:03:38;;;;;;;3.53;1.27;;;;;;;12.15;100.00;99607.06;5028314;28;20033;-52
2023/03/30 06:06:05;;;;;;;1.15;1.05;;;;;;;12.15;100.00;99605.16;5019416;28;20034;-53
2023/03/30 06:08:31;;;;;;;2.17;1.23;;;;;;;12.16;100.00;99609.38;5030525;28;20037;-46
2023/03/30 06:11:01;;;;;;;3.25;1.40;;;;;;;12.17;100.00;99602.84;5031556;28;20045;-50
2023/03/30 06:13:34;;;;;;;2.20;1.15;;;;;;;12.22;100.00;99591.63;5027665;28;20036;-49
2023/03/30 06:16:00;;;;;;;2.65;1.92;;;;;;;12.32;100.00;99588.13;5030120;28;20097;-52
2023/03/30 06:18:26;;;;;;;2.00;1.02;;;;;;;12.13;100.00;99577.78;5020009;28;20021;-55
2023/03/30 06:21:05;;;;;;;2.85;1.67;;;;;;;12.22;100.00;99582.75;5030213;28;20049;-54
2023/03/30 06:23:36;;;;;;;2.08;1.25;;;;;;;12.36;100.00;99571.91;5017196;28;20033;-48
2023/03/30 06:26:06;;;;;;;2.90;1.58;;;;;;;12.23;100.00;99566.16;5015143;28;20110;-50
2023/03/30 06:28:35;;;;;;;2.83;1.40;;;;;;;12.15;100.00;99559.28;5020134;28;20075;-48
2023/03/30 06:31:07;;;;;;;3.00;1.40;;;;;;;12.21;100.00;99546.91;5026418;28;20025;-52
2023/03/30 06:33:33;;;;;;;4.20;1.27;;;;;;;12.14;100.00;99555.03;5027051;28;20022;-51
2023/03/30 06:36:00;;;;;;;3.10;1.50;;;;;;;12.30;100.00;99562.66;5026522;28;20048;-50
2023/03/30 06:38:27;;;;;;;1.85;1.30;;;;;;;12.46;100.00;99558.38;5020924;28;20079;-56
2023/03/30 06:40:54;;;;;;;1.23;0.90;;;;;;;12.44;100.00;99563.38;5026246;28;20040;-48
2023/03/30 06:43:25;;;;;;;1.88;1.25;;;;;;;12.49;100.00;99551.38;5013471;28;20044;-46
2023/03/30 06:45:57;;;;;;;2.15;1.38;;;;;;;12.63;100.00;99554.78;5028079;28;20057;-50
2023/03/30 06:48:25;;;;;;;1.52;1.00;;;;;;;12.58;100.00;99562.53;5024961;28;20119;-59
2023/03/30 06:51:12;;;;;;;1.48;1.15;;;;;;;12.69;100.00;99555.91;5023160;28;20038;-51
2023/03/30 06:53:39;;;;;;;1.45;1.00;;;;;;;12.81;100.00;99546.56;5026511;28;20025;-46
2023/03/30 06:56:06;;;;;;;4.70;1.10;;;;;;;12.93;100.00;99545.34;5022613;28;20025;-55
2023/03/30 06:58:38;;;;;;;1.05;0.95;;;;;;;13.03;100.00;99547.16;5015897;28;20041;-55
2023/03/30 07:01:13;;;;;;;2.70;1.00;;;;;;;13.12;100.00;99548.31;5029574;28;20063;-49
2023/03/30 07:04:08;;;;;;;1.88;1.33;;;;;;;13.29;100.00;99541.97;5000668;28;20054;-47
2023/03/30 07:07:12;;;;;;;1.80;1.05;;;;;;;13.45;100.00;99549.56;5026883;28;20049;-53
2023/03/30 07:09:39;;;;;;;0.88;0.57;;;;;;;13.58;100.00;99547.88;5050816;28;20029;-48
2023/03/30 07:12:05;;;;;;;1.73;1.13;;;;;;;13.86;100.00;99558.38;5038535;28;20033;-53
2023/03/30 07:14:33;;;;;;;1.70;1.17;;;;;;;13.87;100.00;99551.81;5004469;28;20033;-56
2023/03/30 07:16:58;;;;;;;1.63;1.17;;;;;;;13.92;100.00;99550.59;5021351;28;20044;-57
2023/03/30 07:19:24;;;;;;;1.23;1.10;;;;;;;14.20;100.00;99551.06;5036545;28;20891;-49
2023/03/30 07:21:50;;;;;;;1.90;1.20;;;;;;;14.35;99.20;99547.00;5030828;28;20037;-51
2023/03/30 07:24:19;;;;;;;1.08;0.80;;;;;;;14.44;99.21;99552.69;5029596;28;20018;-46
2023/03/30 07:26:49;;;;;;;1.10;0.80;;;;;;;14.41;99.54;99541.91;5031701;28;20052;-55
2023/03/30 07:29:15;;;;;;;2.30;0.85;;;;;;;14.57;98.71;99549.44;5024372;28;20044;-53
2023/03/30 07:31:44;;;;;;;2.83;1.17;;;;;;;14.82;97.86;99553.31;5039933;28;20030;-49
2023/03/30 07:34:15;;;;;;;2.08;0.93;;;;;;;14.90;97.19;99553.97;5041999;28;20046;-50
2023/03/30 07:36:47;;;;;;;2.47;1.27;;;;;;;15.01;96.94;99541.78;5032237;28;20034;-53
2023/03/30 07:39:14;;;;;;;3.13;1.45;;;;;;;15.02;95.14;99556.13;5017534;28;20026;-53
2023/03/30 07:41:44;;;;;;;3.65;2.40;;;;;;;14.94;95.84;99547.31;5009381;28;20065;-55
2023/03/30 07:44:12;;;;;;;1.55;1.05;;;;;;;14.85;95.27;99541.66;5032972;28;20029;-50
2023/03/30 07:46:38;;;;;;;1.08;0.93;;;;;;;14.73;95.47;99547.63;5030090;28;20042;-50
2023/03/30 07:49:04;;;;;;;3.47;1.08;;;;;;;14.78;95.67;99549.13;5022452;28;20488;-51
2023/03/30 07:51:32;;;;;;;1.73;0.88;;;;;;;14.98;94.26;99553.44;5021036;28;20069;-52
2023/03/30 07:54:09;;;;;;;1.33;0.98;;;;;;;14.92;94.50;99563.25;5025267;28;20041;-51
2023/03/30 07:56:54;;;;;;;2.53;1.08;;;;;;;14.77;93.12;99563.88;5036292;28;20026;-47
2023/03/30 07:59:22;;;;;;;1.67;0.88;;;;;;;14.67;94.80;99562.84;5026156;28;20557;-52
2023/03/30 08:01:50;;;;;;;1.98;0.85;;;;;;;14.67;94.49;99570.97;5031036;28;20048;-48
2023/03/30 08:04:44;;;;;;;1.80;1.00;;;;;;;14.43;95.90;99569.34;5030727;28;20281;-51
2023/03/30 08:07:12;;;;;;;1.70;1.02;;;;;;;14.39;95.94;99563.22;5036207;28;20039;-48
2023/03/30 08:09:38;;;;;;;1.10;0.70;;;;;;;14.45;95.80;99564.28;5040411;28;20030;-50
2023/03/30 08:12:04;;;;;;;0.73;0.73;;;;;;;14.22;97.90;99564.19;5024418;28;20084;-56
2023/03/30 08:14:30;;;;;;;0.60;0.43;;;;;;;14.42;97.28;99567.81;5028404;28;20065;-55
2023/03/30 08:16:56;;;;;;;2.13;0.68;;;;;;;14.42;97.23;99563.16;5035159;28;20048;-52
2023/03/30 08:19:24;;;;;;;2.50;0.93;;;;;;;14.61;96.55;99569.13;5030809;28;20028;-51
2023/03/30 08:21:50;;;;;;;1.35;1.25;;;;;;;14.73;96.47;99558.47;5030059;28;20583;-53
2023/03/30 08:24:16;;;;;;;0.85;0.85;;;;;;;14.88;94.88;99559.03;5024879;28;20068;-52
2023/03/30 08:26:42;;;;;;;1.08;0.80;;;;;;;15.01;94.41;99554.56;5034642;28;20057;-48
2023/03/30 08:29:09;;;;;;;2.15;1.35;;;;;;;14.91;94.36;99552.78;5028003;28;20033;-51
2023/03/30 08:31:36;;;;;;;1.20;0.80;;;;;;;14.96;94.55;99557.75;5035642;28;20167;-52
2023/03/30 08:34:03;;;;;;;0.95;0.60;;;;;;;14.95;94.33;99557.00;5023605;28;20017;-47
2023/03/30 08:36:30;;;;;;;1.30;0.70;;;;;;;14.97;94.33;99564.72;5033584;28;20021;-50
2023/03/30 08:38:55;;;;;;;1.35;0.70;;;;;;;15.00;93.94;99553.81;5026352;28;20018;-55
2023/03/30 08:41:28;;;;;;;2.45;0.57;;;;;;;14.97;93.63;99567.41;5037949;28;20490;-53
2023/03/30 08:44:03;;;;;;;1.08;0.70;;;;;;;15.02;94.14;99551.44;5042453;28;20060;-53
2023/03/30 08:46:29;;;;;;;1.08;0.70;;;;;;;15.16;93.19;99562.06;5026073;28;20044;-52
2023/03/30 08:49:00;;;;;;;0.82;0.65;;;;;;;15.09;93.98;99558.72;5050372;28;20029;-55
2023/03/30 08:51:32;;;;;;;0.73;0.60;;;;;;;15.12;94.37;99547.03;5028848;28;20033;-54
2023/03/30 08:54:02;;;;;;;2.97;0.73;;;;;;;15.48;94.15;99537.16;5026049;28;20025;-53
2023/03/30 08:56:31;;;;;;;0.47;0.47;;;;;;;15.62;95.18;99544.28;5038240;28;20055;-53
2023/03/30 08:59:28;;;;;;;1.73;0.88;;;;;;;15.95;95.35;99538.56;5033894;28;20464;-49
2023/03/30 09:02:14;;;;;;;1.45;0.70;;;;;;;16.20;94.87;99552.44;5030517;28;20524;-50
2023/03/30 09:05:00;;;;;;;0.85;0.45;;;;;;;16.20;94.50;99555.16;5029109;28;20124;-51
2023/03/30 09:07:31;;;;;;;1.58;0.73;;;;;;;16.27;93.11;99549.59;5040659;28;20059;-51
2023/03/30 09:09:59;;;;;;;0.52;0.38;;;;;;;16.23;93.32;99538.03;5041787;28;20112;-52
2023/03/30 09:12:30;;;;;;;0.65;0.38;;;;;;;16.17;93.37;99534.25;5020621;28;20503;-49
2023/03/30 09:15:10;;;;;;;1.00;0.50;;;;;;;16.41;92.93;99526.00;5029289;28;20045;-53
2023/03/30 09:17:42;;;;;;;1.23;0.80;;;;;;;16.63;92.14;99535.22;5026903;28;20030;-49
2023/03/30 09:20:21;;;;;;;0.60;0.40;;;;;;;16.49;93.02;99527.41;5017356;28;20697;-50
2023/03/30 09:22:48;;;;;;;1.75;0.50;;;;;;;16.76;92.13;99536.13;5025653;28;20041;-46
2023/03/30 09:25:20;;;;;;;0.75;0.73;;;;;;;16.94;89.71;99539.94;5032591;28;20105;-44
2023/03/30 09:27:58;;;;;;;1.55;0.73;;;;;;;16.85;88.97;99547.16;5032070;28;20033;-49
2023/03/30 09:30:38;;;;;;;1.35;0.80;;;;;;;16.81;89.32;99547.25;5021390;28;20044;-46
2023/03/30 09:33:13;;;;;;;2.30;0.75;;;;;;;16.97;88.52;99532.91;5031994;28;20056;-47
2023/03/30 09:35:52;;;;;;;0.50;0.40;;;;;;;17.04;87.59;99530.00;5041641;28;20093;-53
2023/03/30 09:38:20;;;;;;;1.00;0.50;;;;;;;16.98;86.47;99534.41;5036472;28;20025;-51
2023/03/30 09:41:05;;;;;;;1.65;0.73;;;;;;;17.11;85.36;99532.56;5017139;28;20033;-46
2023/03/30 09:43:42;;;;;;;0.98;0.45;;;;;;;17.08;84.84;99539.63;5036615;28;20013;-50
2023/03/30 09:46:10;;;;;;;1.52;1.00;;;;;;;16.83;85.64;99541.38;5043360;28;20029;-56
2023/03/30 09:48:41;;;;;;;0.63;0.45;;;;;;;16.66;86.80;99539.84;5023428;28;20415;-44
2023/03/30 09:51:23;;;;;;;1.30;0.90;;;;;;;16.72;86.62;99541.66;5027186;28;20072;-47
2023/03/30 09:54:01;;;;;;;1.20;0.70;;;;;;;16.87;85.00;99544.78;5021996;28;20038;-48
2023/03/30 09:56:34;;;;;;;0.98;0.88;;;;;;;16.90;83.99;99541.22;5030814;28;20048;-44
2023/03/30 09:59:32;;;;;;;0.82;0.68;;;;;;;16.84;84.25;99542.94;5030270;28;20581;-45
2023/03/30 10:02:18;;;;;;;0.80;0.60;;;;;;;16.60;84.78;99536.88;5030040;28;20037;-50
2023/03/30 10:04:52;;;;;;;0.68;0.55;;;;;;;16.81;83.48;99532.88;5029124;28;20144;-54
2023/03/30 10:07:58;;;;;;;0.40;0.38;;;;;;;16.56;84.93;99525.31;5019556;28;20099;-46
2023/03/30 10:10:35;;;;;;;1.08;0.52;;;;;;;16.51;85.69;99530.47;5005288;28;20044;-48
2023/03/30 10:13:03;;;;;;;0.77;0.60;;;;;;;16.73;84.95;99528.78;5019562;28;20029;-49
2023/03/30 10:15:31;;;;;;;0.82;0.57;;;;;;;16.46;86.43;99525.50;5028623;28;20021;-45
2023/03/30 10:18:05;;;;;;;0.90;0.60;;;;;;;16.20;88.35;99536.13;5047420;23;20048;-65
2023/03/30 10:20:35;;;;;;;1.27;0.60;;;;;;;16.19;89.23;99528.41;5023544;28;20037;-65
2023/03/30 10:23:07;;;;;;;0.70;0.70;;;;;;;16.16;89.48;99534.69;5026304;28;20021;-65
2023/03/30 10:25:33;;;;;;;3.10;0.65;;;;;;;16.10;90.50;99531.66;5027291;28;20044;-66
2023/03/30 10:28:20;;;;;;;0.70;0.70;;;;;;;16.14;90.95;99526.94;5025810;28;20433;-68
2023/03/30 10:30:52;;;;;;;0.70;0.50;;;;;;;16.14;92.52;99526.94;5023529;28;20059;-65
2023/03/30 10:33:19;;;;;;;1.55;0.85;;;;;;;16.22;93.08;99524.84;5015181;28;20072;-66
2023/03/30 10:35:48;;;;;;;0.22;0.22;;;;;;;16.19;93.74;99526.47;5024804;28;20117;-66
2023/03/30 10:38:14;;;;;;;0.60;0.40;;;;;;;16.25;94.47;99527.50;5020051;28;20025;-65
2023/03/30 10:40:43;;;;;;;0.77;0.50;;;;;;;16.41;94.45;99520.56;5019669;28;20044;-66
2023/03/30 10:43:29;;;;;;;0.50;0.40;;;;;;;16.68;93.60;99527.38;5017065;28;20497;-66
2023/03/30 10:45:57;;;;;;;0.63;0.63;;;;;;;16.83;93.85;99514.19;4998469;28;20029;-66
2023/03/30 10:48:30;;;;;;;1.42;0.70;;;;;;;17.02;93.24;99502.47;5012282;28;20466;-65
2023/03/30 10:51:21;;;;;;;0.60;0.60;;;;;;;17.33;92.81;99500.13;5023453;28;20078;-66
2023/03/30 10:54:31;;;;;;;0.75;0.60;;;;;;;17.70;91.15;99496.81;5013786;28;20033;-65
2023/03/30 10:57:02;;;;;;;1.00;0.60;;;;;;;17.70;88.46;99499.53;4985280;28;20045;-66
2023/03/30 10:59:37;;;;;;;2.60;0.55;;;;;;;17.49;83.69;99491.94;5009874;28;20029;-67
2023/03/30 11:02:40;;;;;;;0.68;0.47;;;;;;;18.06;81.91;99500.06;5007198;28;20653;-66
2023/03/30 11:05:14;;;;;;;0.40;0.30;;;;;;;18.07;79.61;99504.34;5016541;28;20980;-65
2023/03/30 11:07:58;;;;;;;1.20;0.70;;;;;;;18.25;75.79;99482.00;5038708;28;20029;-66
2023/03/30 11:10:28;;;;;;;2.03;0.35;;;;;;;18.35;76.16;99497.28;5022497;28;20112;-65
2023/03/30 11:13:01;;;;;;;0.30;0.28;;;;;;;18.43;74.38;99493.16;5021980;28;20082;-65
2023/03/30 11:15:33;;;;;;;0.70;0.45;;;;;;;18.50;72.88;99499.19;5014872;28;20052;-65
2023/03/30 11:18:04;;;;;;;2.42;0.20;;;;;;;18.43;72.12;99493.16;5019878;28;20037;-65
2023/03/30 11:20:42;;;;;;;0.25;0.20;;;;;;;18.29;72.67;99507.22;5026372;28;20099;-64
2023/03/30 11:23:58;;;;;;;0.20;0.20;;;;;;;17.62;74.21;99500.94;5023014;28;20037;-65
2023/03/30 11:27:01;;;;;;;0.45;0.40;;;;;;;17.74;72.15;99506.44;4967460;28;20077;-65
2023/03/30 11:29:46;;;;;;;0.95;0.30;;;;;;;17.76;72.36;99501.31;4961156;28;20627;-64
2023/03/30 11:32:14;;;;;;;0.20;0.20;;;;;;;17.33;75.96;99500.88;4966011;28;20101;-65
2023/03/30 11:34:58;;;;;;;0.30;0.20;;;;;;;17.06;76.67;99500.41;4969459;28;20037;-69
2023/03/30 11:37:31;;;;;;;0.20;0.20;;;;;;;17.04;77.47;99498.13;4952471;28;20054;-65
2023/03/30 11:40:10;;;;;;;0.50;0.20;;;;;;;17.46;75.17;99500.97;4965101;28;20039;-64
2023/03/30 11:42:36;;;;;;;0.35;0.15;;;;;;;17.59;73.89;99499.84;4970278;28;20126;-64
2023/03/30 11:45:21;;;;;;;0.28;0.20;;;;;;;17.46;74.04;99498.97;4935866;29;20039;-64
2023/03/30 11:48:05;;;;;;;1.30;0.28;;;;;;;17.73;71.45;99493.25;4969206;28;20407;-64
2023/03/30 11:50:49;;;;;;;1.00;0.85;;;;;;;17.55;73.61;99503.84;4963906;28;20031;-65
2023/03/30 11:53:30;;;;;;;2.20;0.40;;;;;;;17.38;75.50;99503.06;4958149;28;20129;-67
2023/03/30 11:55:56;;;;;;;;;;;;;;;17.52;73.75;99497.28;4974236;28;20039;-66
2023/03/30 11:58:44;;;;;;;0.30;0.30;;;;;;;17.72;71.12;99491.72;5021141;28;20293;-65
2023/03/30 12:01:12;;;;;;;0.38;0.20;;;;;;;17.54;71.20;99494.91;5022259;28;20047;-65
2023/03/30 12:03:43;;;;;;;1.13;0.35;;;;;;;17.44;71.20;99495.91;5031984;28;20094;-65
2023/03/30 12:06:15;;;;;;;0.20;0.20;;;;;;;17.52;70.73;99491.84;5022261;28;20044;-65